Time;durP1;ratioP1;P1;durP2;ratioP2;P2;SDS_P1;SDS_P2;PMS_P1;PMS_P2;Temp;Humidity;BMP_temperature;BMP_pressure;BME280_temperature;BME280_humidity;BME280_pressure;Samples;Min_cycle;Max_cycle;Signal;HPM_P1;HPM_P2
2022/01/27 00:10:47;;;;;;;24.57;13.27;;;3.60;91.00;;;;;;20983518;28;20234;-65
2022/01/27 00:20:49;;;;;;;23.20;12.73;;;3.60;91.10;;;;;;20982682;28;20203;-68
2022/01/27 00:30:51;;;;;;;25.33;14.27;;;3.70;91.10;;;;;;20985618;28;20227;-71
2022/01/27 00:40:52;;;;;;;25.37;13.83;;;3.50;91.30;;;;;;20981549;28;20222;-73
2022/01/27 00:50:58;;;;;;;23.87;12.93;;;3.50;91.20;;;;;;20980144;28;20714;-69
2022/01/27 01:01:03;;;;;;;25.40;13.93;;;3.40;91.60;;;;;;20979570;28;20257;-63
2022/01/27 01:41:25;;;;;;;27.13;14.67;;;3.40;92.00;;;;;;20846110;28;20611;-65
2022/01/27 01:51:29;;;;;;;30.07;15.17;;;3.30;91.90;;;;;;20838311;28;20246;-63
2022/01/27 02:01:32;;;;;;;31.43;16.20;;;3.40;92.10;;;;;;20837495;28;20211;-65
2022/01/27 02:22:02;;;;;;;34.73;16.27;;;3.50;92.00;;;;;;20835034;28;20213;-62
2022/01/27 02:32:04;;;;;;;30.93;16.13;;;3.40;91.90;;;;;;20834943;28;20236;-67
2022/01/27 02:42:25;;;;;;;32.30;16.23;;;3.40;91.80;;;;;;20835505;28;20204;-70
2022/01/27 02:52:27;;;;;;;30.17;16.33;;;3.40;91.80;;;;;;20833038;28;20287;-75
2022/01/27 03:02:29;;;;;;;29.90;16.63;;;3.40;91.70;;;;;;20832732;28;20270;-67
2022/01/27 03:12:32;;;;;;;32.80;16.33;;;3.30;91.60;;;;;;20832339;28;20232;-68
2022/01/27 03:22:36;;;;;;;28.87;15.40;;;3.30;91.70;;;;;;20868880;28;20208;-63
2022/01/27 03:32:38;;;;;;;29.53;15.20;;;3.50;91.70;;;;;;20910597;28;20289;-63
2022/01/27 03:42:49;;;;;;;25.97;14.87;;;3.40;91.50;;;;;;20912925;28;20200;-62
2022/01/27 03:52:51;;;;;;;26.37;14.67;;;3.30;91.60;;;;;;20911911;28;20235;-65
2022/01/27 04:03:05;;;;;;;26.50;14.30;;;3.20;91.40;;;;;;20911915;28;20724;-63
2022/01/27 04:13:08;;;;;;;26.97;14.93;;;3.10;91.40;;;;;;20911690;28;20269;-62
2022/01/27 04:23:10;;;;;;;31.80;16.47;;;3.10;91.60;;;;;;20911139;28;20582;-62
2022/01/27 04:33:11;;;;;;;29.53;14.17;;;3.20;91.60;;;;;;20910709;28;20294;-64
2022/01/27 04:43:33;;;;;;;28.63;14.83;;;3.20;91.90;;;;;;20920374;28;20204;-63
2022/01/27 04:53:45;;;;;;;24.77;14.40;;;3.00;91.50;;;;;;20925706;28;20239;-62
2022/01/27 05:03:57;;;;;;;27.87;13.73;;;3.10;91.40;;;;;;20925709;28;20246;-62
2022/01/27 05:14:10;;;;;;;24.97;12.90;;;;;;;;;;20924064;28;20232;-61
2022/01/27 05:24:13;;;;;;;22.43;12.57;;;3.00;91.30;;;;;;20871985;28;20270;-61
2022/01/27 05:37:47;;;;;;;24.90;12.30;;;3.00;91.20;;;;;;21067470;27;20571;-63
2022/01/27 05:47:48;;;;;;;28.00;14.13;;;3.10;91.30;;;;;;21068022;28;20286;-61
2022/01/27 06:01:08;;;;;;;29.77;14.60;;;2.60;91.40;;;;;;21067877;27;21110;-63
2022/01/27 06:15:32;;;;;;;27.30;15.03;;;2.90;91.50;;;;;;20982960;28;21107;-61
2022/01/27 06:25:35;;;;;;;28.00;14.13;;;2.90;91.50;;;;;;20982867;28;20647;-62
2022/01/27 06:40:10;;;;;;;26.20;14.07;;;;;;;;;;20981018;28;21109;-60
2022/01/27 06:50:11;;;;;;;28.57;15.80;;;2.80;91.60;;;;;;20982132;28;20284;-61
2022/01/27 07:00:14;;;;;;;30.10;16.17;;;2.80;91.80;;;;;;20982928;28;20215;-59
2022/01/27 07:10:15;;;;;;;27.87;15.30;;;2.80;91.70;;;;;;20981732;28;20659;-60
2022/01/27 07:20:17;;;;;;;29.63;14.97;;;2.70;91.80;;;;;;20972393;28;20208;-62
2022/01/27 07:30:19;;;;;;;26.27;14.10;;;2.70;91.90;;;;;;20898331;28;20204;-61
2022/01/27 07:40:21;;;;;;;29.03;15.27;;;2.70;92.00;;;;;;20896054;28;20218;-63
2022/01/27 07:50:44;;;;;;;29.60;15.50;;;2.90;92.00;;;;;;20844824;28;20246;-64
2022/01/27 08:00:45;;;;;;;25.53;13.43;;;2.90;91.90;;;;;;20906128;28;20208;-61
2022/01/27 08:10:48;;;;;;;24.90;12.60;;;3.20;91.70;;;;;;20919911;28;20225;-63
2022/01/27 08:28:50;;;;;;;21.63;11.57;;;3.30;91.40;;;;;;20982589;28;20572;-61
2022/01/27 08:38:53;;;;;;;24.83;12.53;;;3.20;91.40;;;;;;20981666;28;20221;-63
2022/01/27 08:48:55;;;;;;;24.57;12.93;;;3.30;91.30;;;;;;20981083;28;20290;-62
2022/01/27 08:58:57;;;;;;;22.63;11.90;;;3.50;91.30;;;;;;20980410;28;20229;-63
2022/01/27 09:09:00;;;;;;;19.90;10.60;;;3.50;91.20;;;;;;20979567;28;20214;-60
2022/01/27 09:19:03;;;;;;;23.40;11.73;;;3.40;91.30;;;;;;20977692;28;20236;-63
2022/01/27 09:29:05;;;;;;;19.37;10.77;;;3.60;91.40;;;;;;20899399;28;20212;-63
2022/01/27 09:39:08;;;;;;;19.43;9.83;;;3.70;91.30;;;;;;20859294;28;20259;-70
2022/01/27 09:49:19;;;;;;;16.13;9.33;;;3.80;91.10;;;;;;20923137;28;20208;-63
2022/01/27 09:59:21;;;;;;;21.30;10.37;;;3.80;91.40;;;;;;20926515;28;20232;-64
2022/01/27 10:09:27;;;;;;;20.20;10.43;;;3.80;91.20;;;;;;20921394;28;20315;-69
2022/01/27 10:19:29;;;;;;;21.13;10.83;;;3.80;91.30;;;;;;20917884;28;20267;-65
2022/01/27 10:29:48;;;;;;;22.77;11.57;;;3.80;91.50;;;;;;20917465;28;20216;-61
2022/01/27 10:39:53;;;;;;;19.90;10.30;;;3.70;91.80;;;;;;20916127;28;20242;-63
2022/01/27 10:50:05;;;;;;;17.67;9.80;;;3.70;91.80;;;;;;20914767;28;20207;-63
2022/01/27 11:00:24;;;;;;;18.53;9.83;;;3.70;91.80;;;;;;20913911;28;20243;-64
2022/01/27 11:10:26;;;;;;;16.87;9.07;;;3.60;91.80;;;;;;20914106;28;20573;-62
2022/01/27 11:20:34;;;;;;;16.77;9.20;;;3.60;92.00;;;;;;20913397;28;20247;-62
2022/01/27 11:30:54;;;;;;;15.33;9.13;;;3.70;91.90;;;;;;20908584;28;20725;-64
2022/01/27 11:46:32;;;;;;;15.63;8.30;;;3.70;91.70;;;;;;20983886;28;20569;-63
2022/01/27 11:56:35;;;;;;;16.10;8.03;;;3.70;91.60;;;;;;20981856;28;20211;-65
2022/01/27 12:07:00;;;;;;;12.33;7.20;;;3.80;91.80;;;;;;20980865;28;20204;-62
2022/01/27 12:17:12;;;;;;;13.63;7.87;;;3.80;91.70;;;;;;20977086;28;20252;-62
2022/01/27 12:27:19;;;;;;;14.13;7.73;;;3.80;92.00;;;;;;20979437;28;20669;-61
2022/01/27 12:37:43;;;;;;;14.83;7.57;;;3.80;91.70;;;;;;20979265;28;20232;-62
2022/01/27 12:47:49;;;;;;;16.30;8.20;;;3.70;91.90;;;;;;20975973;28;20207;-67
2022/01/27 12:58:09;;;;;;;15.30;8.07;;;3.40;92.10;;;;;;20920685;28;20246;-60
2022/01/27 13:08:19;;;;;;;17.40;8.83;;;3.60;92.60;;;;;;20920665;28;20528;-60
2022/01/27 13:18:27;;;;;;;17.40;9.47;;;3.70;92.50;;;;;;20921493;28;20330;-64
2022/01/27 13:28:37;;;;;;;16.80;9.43;;;3.70;92.50;;;;;;20858051;28;20679;-62
2022/01/27 13:39:24;;;;;;;18.73;9.90;;;3.50;92.70;;;;;;20838160;28;20238;-62
2022/01/27 13:49:32;;;;;;;19.43;10.37;;;3.60;93.00;;;;;;20837187;28;20307;-61
2022/01/27 13:59:54;;;;;;;20.50;10.57;;;3.60;93.20;;;;;;20834578;28;20592;-62
2022/01/27 14:10:10;;;;;;;24.03;11.40;;;3.70;93.50;;;;;;20834714;28;20560;-60
2022/01/27 14:20:13;;;;;;;25.83;11.67;;;3.90;93.30;;;;;;20833502;28;20240;-59
2022/01/27 14:30:17;;;;;;;22.27;11.97;;;4.10;93.40;;;;;;20832205;28;20736;-60
2022/01/27 14:40:19;;;;;;;24.83;12.50;;;4.00;93.40;;;;;;20831125;28;20298;-60
2022/01/27 14:50:21;;;;;;;26.77;12.63;;;3.90;93.50;;;;;;20830992;28;20619;-63
2022/01/27 15:03:29;;;;;;;32.50;15.93;;;3.90;93.80;;;;;;20982259;28;20561;-60
2022/01/27 15:13:33;;;;;;;32.77;15.47;;;3.90;94.00;;;;;;20981696;28;20214;-62
2022/01/27 15:23:39;;;;;;;30.87;14.10;;;3.80;94.10;;;;;;20967596;28;20726;-60
2022/01/27 15:33:41;;;;;;;33.47;16.40;;;3.90;94.30;;;;;;20894688;28;20567;-61
2022/01/27 15:43:48;;;;;;;28.47;13.73;;;3.90;94.30;;;;;;20896902;28;20258;-59
2022/01/27 15:55:00;;;;;;;27.23;13.97;;;4.00;94.60;;;;;;20982552;28;20569;-61
2022/01/27 16:07:22;;;;;;;27.10;13.20;;;4.00;94.60;;;;;;20982164;28;20568;-62
2022/01/27 16:17:25;;;;;;;25.10;13.30;;;4.10;94.80;;;;;;20981653;28;20207;-60
2022/01/27 16:27:27;;;;;;;26.63;13.43;;;4.10;94.80;;;;;;20981212;28;20203;-63
2022/01/27 16:37:29;;;;;;;24.50;12.73;;;4.10;95.10;;;;;;20979393;28;20400;-62
2022/01/27 16:48:45;;;;;;;25.50;11.50;;;4.20;95.10;;;;;;20980620;28;21104;-60
2022/01/27 16:58:48;;;;;;;19.13;10.60;;;4.10;95.40;;;;;;20981237;28;20207;-60
2022/01/27 17:08:49;;;;;;;20.57;10.73;;;4.20;95.70;;;;;;20980309;28;20211;-63
2022/01/27 17:18:51;;;;;;;15.90;9.33;;;4.10;95.80;;;;;;20980722;28;20651;-63
2022/01/27 17:28:53;;;;;;;17.60;9.10;;;4.10;95.90;;;;;;20975051;28;20212;-65
2022/01/27 17:38:55;;;;;;;14.43;8.43;;;4.20;96.30;;;;;;20977962;28;20666;-64
2022/01/27 17:48:56;;;;;;;15.63;8.73;;;4.30;96.20;;;;;;20978708;28;20273;-65
2022/01/27 17:58:58;;;;;;;14.17;8.87;;;4.30;96.20;;;;;;20906056;28;20209;-71
2022/01/27 18:09:00;;;;;;;16.77;9.13;;;4.30;96.20;;;;;;20846727;28;20212;-64
2022/01/27 18:19:02;;;;;;;12.37;7.63;;;4.40;96.30;;;;;;20905929;28;20209;-69
2022/01/27 18:29:04;;;;;;;11.67;7.67;;;4.40;96.30;;;;;;20968336;28;20208;-63
2022/01/27 18:39:06;;;;;;;11.27;6.97;;;4.40;96.30;;;;;;20989726;28;20760;-65
2022/01/27 18:49:10;;;;;;;12.90;6.97;;;4.40;96.40;;;;;;20924622;28;20326;-68
2022/01/27 19:04:08;;;;;;;10.60;6.77;;;4.70;96.30;;;;;;21029410;28;20285;-64
2022/01/27 19:14:10;;;;;;;8.60;5.60;;;4.70;96.20;;;;;;20984413;28;20208;-72
2022/01/27 19:24:17;;;;;;;8.33;5.60;;;4.70;96.50;;;;;;20981449;28;20211;-64
2022/01/27 19:34:22;;;;;;;8.83;5.47;;;4.90;96.20;;;;;;20957507;28;20550;-63
2022/01/27 19:44:24;;;;;;;20.20;11.87;;;4.90;96.50;;;;;;20982391;28;20219;-62
2022/01/27 19:54:27;;;;;;;10.07;5.13;;;4.90;96.50;;;;;;20984214;28;20273;-72
2022/01/27 20:04:29;;;;;;;7.30;5.13;;;5.20;96.30;;;;;;21057954;28;20257;-65
2022/01/27 20:14:31;;;;;;;7.20;5.33;;;5.30;96.30;;;;;;20931048;28;20683;-64
2022/01/27 20:24:34;;;;;;;12.40;7.93;;;5.40;96.20;;;;;;20995035;28;20582;-64
2022/01/27 20:34:35;;;;;;;7.27;5.20;;;5.50;96.40;;;;;;21005199;28;20223;-63
2022/01/27 20:44:37;;;;;;;6.33;5.03;;;5.70;96.40;;;;;;21004827;28;20203;-63
2022/01/27 21:07:34;;;;;;;6.87;4.90;;;5.80;96.80;;;;;;21067736;27;20556;-65
2022/01/27 21:17:37;;;;;;;6.27;4.90;;;5.80;96.90;;;;;;21066830;28;20206;-65
2022/01/27 21:27:39;;;;;;;8.10;5.70;;;5.80;97.20;;;;;;21067090;28;20212;-67
2022/01/27 21:37:43;;;;;;;7.73;5.40;;;5.70;97.20;;;;;;21064286;28;20224;-68
2022/01/27 21:47:44;;;;;;;6.17;4.80;;;5.60;97.00;;;;;;20999750;28;20217;-65
2022/01/27 21:57:53;;;;;;;7.30;5.40;;;5.70;97.20;;;;;;20979867;28;20610;-63
2022/01/27 22:07:55;;;;;;;7.47;5.03;;;5.70;97.40;;;;;;20978977;28;20261;-63
2022/01/27 22:17:58;;;;;;;5.57;4.17;;;5.60;97.30;;;;;;20928755;28;20228;-62
2022/01/27 22:27:59;;;;;;;5.67;4.30;;;5.50;97.30;;;;;;20927556;28;20217;-71
2022/01/27 22:38:01;;;;;;;6.63;4.93;;;5.50;97.50;;;;;;20922201;28;20224;-66
2022/01/27 22:48:03;;;;;;;6.97;5.47;;;5.50;98.30;;;;;;20983340;28;20207;-64
2022/01/27 22:58:05;;;;;;;7.37;5.17;;;5.40;98.60;;;;;;21087329;28;20292;-69
2022/01/27 23:08:09;;;;;;;6.10;4.60;;;5.50;98.90;;;;;;21086567;28;20203;-64
2022/01/27 23:28:25;;;;;;;6.60;4.70;;;5.30;98.70;;;;;;20914378;28;20212;-66
2022/01/27 23:38:38;;;;;;;5.33;4.37;;;5.30;99.00;;;;;;20917750;28;20235;-69
2022/01/27 23:48:47;;;;;;;5.67;4.80;;;5.30;98.90;;;;;;20916890;28;20231;-71
2022/01/27 23:58:56;;;;;;;7.53;5.70;;;5.30;99.20;;;;;;20915771;28;20323;-72
